Latest Areodrome Forecast (TAF)

TAF VMMC 242300Z 2500/2606 36010KT 9000 FEW015 SCT040 TEMPO 2500/2503 4500 SHRA BECMG 2508/2510 07010KT=

Decoded TAF in plain language
Contents of Report Code Information
Report Type TAF Aerodrome Forecasts
Location VMMC Macao, China
Issuing Time 242300Z 24/04/2018 23:00 UTC
Period of Validity of Forecast 2500/2606 Between 25th 00:00 UTC and 26th 06:00 UTC
Surface Wind Direction and Speed 36010KT mean direction 360 degrees, speed 10 knots
Visibility 9000 9 kilometres
Weather    
Cloud FEW015 SCT040 amount 1-2 oktas, base 1500 feet;
amount 3-4 oktas, base 4000 feet
Expected Significant ChangesTEMPO 2500/2503 4500 SHRAtemporarily between 25th 00:00 UTC and 25th 03:00 UTC
visibility: 4500 metres
weather: rain shower
 BECMG 2508/2510 07010KTbecoming between 25th 08:00 UTC and 25th 10:00 UTC
wind: mean direction 070 degrees, speed 10 knots

OTHER INTERNATIONAL AIRPORTS:
Weather Forecast (TAF)   Weather Report (METAR)